Time;durP1;ratioP1;P1;durP2;ratioP2;P2;SDS_P1;SDS_P2;PMS_P1;PMS_P2;Temp;Humidity;BMP_temperature;BMP_pressure;BME280_temperature;BME280_humidity;BME280_pressure;Samples;Min_cycle;Max_cycle;Signal;HPM_P1;HPM_P2
2022/11/13 00:01:53;;;;;;;18.50;12.77;;;4.80;99.90;;;;;;4959841;29;20075;-79
2022/11/13 00:04:18;;;;;;;19.50;13.73;;;4.80;99.90;;;;;;4962617;28;20034;-79
2022/11/13 00:06:44;;;;;;;21.48;14.23;;;4.70;99.90;;;;;;4971191;28;20524;-79
2022/11/13 00:09:12;;;;;;;20.58;13.90;;;4.70;99.90;;;;;;4962983;28;20031;-80
2022/11/13 00:11:38;;;;;;;19.98;13.57;;;4.70;99.90;;;;;;4960513;29;20063;-79
2022/11/13 00:14:04;;;;;;;18.08;13.02;;;4.70;99.90;;;;;;4961719;28;20034;-80
2022/11/13 00:16:30;;;;;;;16.17;12.80;;;4.60;99.90;;;;;;4979023;28;20027;-79
2022/11/13 00:18:55;;;;;;;18.67;13.18;;;4.50;99.90;;;;;;4979378;28;20027;-79
2022/11/13 00:21:23;;;;;;;20.88;14.20;;;4.40;99.90;;;;;;4979015;28;20026;-79
2022/11/13 00:23:49;;;;;;;19.73;14.00;;;4.40;99.90;;;;;;4961821;28;20027;-79
2022/11/13 00:26:17;;;;;;;21.65;14.95;;;4.30;99.90;;;;;;4961342;28;20023;-80
2022/11/13 00:28:44;;;;;;;24.55;16.23;;;4.40;99.90;;;;;;4959667;29;20027;-80
2022/11/13 00:31:12;;;;;;;23.05;15.30;;;4.40;99.90;;;;;;4961681;29;20437;-80
2022/11/13 00:33:38;;;;;;;23.23;15.13;;;4.50;99.90;;;;;;4945874;29;20143;-80
2022/11/13 00:36:07;;;;;;;23.35;16.02;;;4.50;99.90;;;;;;4960710;28;20620;-79
2022/11/13 00:38:36;;;;;;;20.10;13.73;;;4.50;99.90;;;;;;4941744;29;20504;-80
2022/11/13 00:41:02;;;;;;;20.65;13.63;;;4.50;99.90;;;;;;4959525;29;20082;-79
2022/11/13 00:43:28;;;;;;;25.40;14.52;;;4.40;99.90;;;;;;4959146;29;20028;-79
2022/11/13 00:45:54;;;;;;;18.85;12.85;;;4.40;99.90;;;;;;4967102;28;20027;-80
2022/11/13 00:48:19;;;;;;;18.75;12.55;;;4.40;99.90;;;;;;4966413;28;20037;-79
2022/11/13 00:50:45;;;;;;;21.77;13.43;;;4.30;99.90;;;;;;4959294;29;20082;-80
2022/11/13 00:53:11;;;;;;;16.23;11.75;;;4.30;99.90;;;;;;4958335;29;20034;-79
2022/11/13 00:55:37;;;;;;;16.35;11.07;;;4.30;99.90;;;;;;4959548;29;20026;-80
2022/11/13 00:58:06;;;;;;;15.88;11.50;;;4.20;99.90;;;;;;4962142;29;20027;-80
2022/11/13 01:00:32;;;;;;;15.52;11.05;;;4.20;99.90;;;;;;4943309;29;20106;-79
2022/11/13 01:02:58;;;;;;;17.23;12.23;;;4.20;99.90;;;;;;4942242;29;20416;-79
2022/11/13 01:05:27;;;;;;;17.83;11.88;;;4.20;99.90;;;;;;4959810;29;20110;-79
2022/11/13 01:07:52;;;;;;;16.48;10.95;;;4.20;99.90;;;;;;4976875;28;20419;-79
2022/11/13 01:10:18;;;;;;;16.42;10.77;;;4.30;99.90;;;;;;4981012;28;20046;-79
2022/11/13 01:12:44;;;;;;;15.55;11.15;;;4.30;99.90;;;;;;4979293;28;20045;-80
2022/11/13 01:15:10;;;;;;;15.40;11.63;;;4.30;99.90;;;;;;4978202;28;20473;-79
2022/11/13 01:17:36;;;;;;;16.30;11.10;;;4.20;99.90;;;;;;4965257;28;20105;-79
2022/11/13 01:20:05;;;;;;;14.90;10.43;;;4.20;99.90;;;;;;4959599;29;20091;-79
2022/11/13 01:22:31;;;;;;;16.85;12.07;;;4.10;99.90;;;;;;4959445;29;20451;-80
2022/11/13 01:24:59;;;;;;;15.10;11.20;;;4.10;99.90;;;;;;4963230;29;20051;-80
2022/11/13 01:27:24;;;;;;;15.70;11.63;;;4.10;99.90;;;;;;4941441;29;20027;-78
2022/11/13 01:29:50;;;;;;;17.38;12.32;;;4.10;99.90;;;;;;4960448;29;20037;-79
2022/11/13 01:32:16;;;;;;;15.77;11.10;;;4.00;99.90;;;;;;4960854;29;20042;-81
2022/11/13 01:34:41;;;;;;;18.38;12.40;;;4.00;99.90;;;;;;4964294;29;20027;-80
2022/11/13 01:37:08;;;;;;;16.52;11.75;;;4.00;99.90;;;;;;4943708;29;20094;-80
2022/11/13 01:39:37;;;;;;;18.08;12.90;;;4.00;99.90;;;;;;4963752;29;20020;-79
2022/11/13 01:42:03;;;;;;;16.38;12.48;;;4.10;99.90;;;;;;4943831;29;20059;-79
2022/11/13 01:44:53;;;;;;;18.67;11.93;;;4.10;99.90;;;;;;4961696;29;20038;-80
2022/11/13 01:47:20;;;;;;;18.45;12.07;;;4.10;99.90;;;;;;4960794;29;20023;-79
2022/11/13 01:49:48;;;;;;;17.40;12.57;;;4.10;99.90;;;;;;4962189;29;20029;-79
2022/11/13 01:52:32;;;;;;;17.40;12.00;;;4.10;99.90;;;;;;4965626;29;20096;-79
2022/11/13 01:55:24;;;;;;;16.95;11.25;;;4.10;99.90;;;;;;4954377;29;20031;-80
2022/11/13 01:57:50;;;;;;;13.20;9.80;;;4.10;99.90;;;;;;4967570;29;20043;-79
2022/11/13 02:00:15;;;;;;;16.05;11.23;;;4.10;99.90;;;;;;4962972;29;20028;-79
2022/11/13 02:02:41;;;;;;;15.35;10.30;;;4.00;99.90;;;;;;4961107;29;20028;-80
2022/11/13 02:05:08;;;;;;;15.43;10.63;;;4.00;99.90;;;;;;4960955;29;20035;-79
2022/11/13 02:07:36;;;;;;;14.27;10.77;;;4.00;99.90;;;;;;4960520;29;20035;-79
2022/11/13 02:10:01;;;;;;;14.65;10.52;;;3.90;99.90;;;;;;4963627;28;20034;-80
2022/11/13 02:12:35;;;;;;;14.85;12.07;;;3.90;99.90;;;;;;4966660;28;20031;-80
2022/11/13 02:15:05;;;;;;;14.57;10.95;;;3.90;99.90;;;;;;4949976;29;20096;-80
2022/11/13 02:17:44;;;;;;;17.02;11.27;;;3.90;99.90;;;;;;4961411;29;20026;-80
2022/11/13 02:20:10;;;;;;;17.80;11.70;;;3.90;99.90;;;;;;4964833;28;20448;-80
2022/11/13 02:23:13;;;;;;;16.35;11.80;;;3.90;99.90;;;;;;4984264;28;20105;-80
2022/11/13 02:25:40;;;;;;;17.02;11.45;;;3.90;99.90;;;;;;4917126;29;20118;-79
2022/11/13 02:28:06;;;;;;;15.70;12.50;;;4.00;99.90;;;;;;4967694;29;20023;-79
2022/11/13 02:30:34;;;;;;;17.40;11.77;;;4.00;99.90;;;;;;4982048;28;20027;-77
2022/11/13 02:33:00;;;;;;;17.67;12.43;;;3.90;99.90;;;;;;4981371;28;20043;-79
2022/11/13 02:35:30;;;;;;;17.45;11.82;;;3.90;99.90;;;;;;4981703;29;20039;-79
2022/11/13 02:37:58;;;;;;;19.02;11.90;;;3.90;99.90;;;;;;4981849;28;20027;-79
2022/11/13 02:40:25;;;;;;;17.27;12.13;;;3.90;99.90;;;;;;4982025;28;20023;-79
2022/11/13 02:42:50;;;;;;;14.45;10.65;;;3.90;99.90;;;;;;4981911;28;20011;-79
2022/11/13 02:45:16;;;;;;;16.05;11.63;;;3.90;99.90;;;;;;4981559;28;20034;-80
2022/11/13 02:47:45;;;;;;;15.52;11.30;;;3.90;99.90;;;;;;4981749;28;20035;-78
2022/11/13 02:50:12;;;;;;;18.38;11.77;;;3.80;99.90;;;;;;4981824;29;20031;-79
2022/11/13 02:52:37;;;;;;;14.27;9.93;;;3.80;99.90;;;;;;4982082;28;20053;-79
2022/11/13 02:55:04;;;;;;;12.18;8.98;;;3.90;99.90;;;;;;4974063;28;20035;-79
2022/11/13 02:57:29;;;;;;;14.73;10.27;;;4.00;99.90;;;;;;4966869;28;20019;-79
2022/11/13 02:59:55;;;;;;;12.75;9.30;;;4.10;99.90;;;;;;4970257;28;20212;-79
2022/11/13 03:02:21;;;;;;;11.40;8.95;;;4.10;99.90;;;;;;4972875;29;20023;-79
2022/11/13 03:04:46;;;;;;;12.95;9.57;;;4.10;99.90;;;;;;4982037;28;20027;-78
2022/11/13 03:07:12;;;;;;;11.50;9.05;;;4.20;99.90;;;;;;4981627;28;20039;-79
2022/11/13 03:09:39;;;;;;;11.10;8.05;;;4.10;99.90;;;;;;4980722;28;20035;-79
2022/11/13 03:12:06;;;;;;;13.38;9.40;;;4.20;99.90;;;;;;5001224;28;20054;-79
2022/11/13 03:14:31;;;;;;;9.50;8.25;;;4.10;99.90;;;;;;5000993;28;20034;-78
2022/11/13 03:16:57;;;;;;;11.25;8.35;;;4.00;99.90;;;;;;5000965;28;20019;-79
2022/11/13 03:19:23;;;;;;;11.02;7.97;;;3.90;99.90;;;;;;5001167;28;20022;-79
2022/11/13 03:21:49;;;;;;;9.40;7.10;;;3.80;99.90;;;;;;4987977;28;20007;-77
2022/11/13 03:24:14;;;;;;;7.07;6.32;;;3.70;99.90;;;;;;4981908;28;20086;-79
2022/11/13 03:26:40;;;;;;;9.90;7.60;;;3.60;99.90;;;;;;4981623;28;20019;-78
2022/11/13 03:29:06;;;;;;;9.13;6.75;;;3.50;99.90;;;;;;4981937;28;20259;-79
2022/11/13 03:31:31;;;;;;;7.68;6.07;;;3.40;99.90;;;;;;4980696;28;20046;-80
2022/11/13 03:33:57;;;;;;;7.47;5.88;;;3.40;99.90;;;;;;4981850;28;20025;-78
2022/11/13 03:36:25;;;;;;;6.55;5.78;;;3.40;99.90;;;;;;4964742;29;20030;-80
2022/11/13 03:38:51;;;;;;;7.57;5.90;;;3.30;99.90;;;;;;4981434;28;20035;-80
2022/11/13 03:41:17;;;;;;;6.25;5.53;;;3.40;99.90;;;;;;4981535;28;20031;-80
2022/11/13 03:43:43;;;;;;;8.73;6.35;;;3.30;99.90;;;;;;4994951;28;20050;-80
2022/11/13 03:46:11;;;;;;;7.00;5.97;;;3.30;99.90;;;;;;4983653;28;20035;-80
2022/11/13 03:48:37;;;;;;;8.60;5.70;;;3.30;99.90;;;;;;4981733;29;20075;-80
2022/11/13 03:51:06;;;;;;;6.70;5.55;;;3.30;99.90;;;;;;4980827;29;20030;-80
2022/11/13 03:53:32;;;;;;;7.78;6.25;;;3.30;99.90;;;;;;4980035;28;20039;-79
2022/11/13 03:55:58;;;;;;;7.18;5.75;;;3.20;99.90;;;;;;4981410;28;20027;-79
2022/11/13 03:58:24;;;;;;;7.47;6.15;;;3.30;99.90;;;;;;4981018;28;20042;-77
2022/11/13 04:00:52;;;;;;;7.20;6.07;;;3.20;99.90;;;;;;4981510;28;20040;-80
2022/11/13 04:03:17;;;;;;;7.13;6.05;;;3.20;99.90;;;;;;4981238;28;20023;-78
2022/11/13 04:05:43;;;;;;;6.75;5.43;;;;;;;;;;4981389;28;20056;-79
2022/11/13 04:08:12;;;;;;;8.55;6.15;;;;;;;;;;4980981;28;20015;-81
2022/11/13 04:10:38;;;;;;;4.47;4.07;;;;;;;;;;4964617;28;20031;-80
2022/11/13 04:13:04;;;;;;;5.72;5.10;;;;;;;;;;4980661;28;20027;-79
2022/11/13 04:15:30;;;;;;;7.22;4.82;;;;;;;;;;4980817;28;20031;-80
2022/11/13 04:17:57;;;;;;;6.07;4.70;;;;;;;;;;4980955;28;20035;-80
2022/11/13 04:20:23;;;;;;;5.18;4.40;;;;;;;;;;4980934;28;20174;-78
2022/11/13 04:22:49;;;;;;;5.80;4.38;;;;;;;;;;4999894;28;20022;-78
2022/11/13 04:25:15;;;;;;;5.88;4.60;;;;;;;;;;5000413;28;20054;-80
2022/11/13 04:27:41;;;;;;;4.80;4.30;;;;;;;;;;5000037;28;20027;-80
2022/11/13 04:30:08;;;;;;;4.32;3.92;;;;;;;;;;5000142;28;20035;-79
2022/11/13 04:32:34;;;;;;;5.13;4.47;;;;;;;;;;4998274;28;20081;-80
2022/11/13 04:35:00;;;;;;;5.80;4.80;;;;;;;;;;4997628;28;20034;-80
2022/11/13 04:37:26;;;;;;;6.35;4.72;;;;;;;;;;4981296;28;20102;-79
2022/11/13 04:39:52;;;;;;;5.00;4.35;;;;;;;;;;4999482;28;20026;-80
2022/11/13 04:45:03;;;;;;;5.95;4.63;;;;;;;;;;4999453;28;20099;-79
2022/11/13 04:47:29;;;;;;;5.75;4.57;;;;;;;;;;4999819;28;20038;-79
2022/11/13 04:49:55;;;;;;;5.63;4.53;;;;;;;;;;5000082;28;20022;-80
2022/11/13 04:52:21;;;;;;;6.18;4.97;;;;;;;;;;4988776;28;20015;-81
2022/11/13 04:54:47;;;;;;;5.45;4.90;;;;;;;;;;4980538;28;20025;-82
2022/11/13 04:57:13;;;;;;;6.03;4.97;;;;;;;;;;4979908;28;20035;-81
2022/11/13 04:59:39;;;;;;;6.07;5.00;;;;;;;;;;4977482;29;20015;-80
2022/11/13 05:02:06;;;;;;;5.90;5.10;;;;;;;;;;4980368;28;20019;-80
2022/11/13 05:04:32;;;;;;;5.25;4.38;;;;;;;;;;4980272;28;20027;-81
2022/11/13 05:07:00;;;;;;;5.07;4.57;;;;;;;;;;4979898;28;20071;-81
2022/11/13 05:09:26;;;;;;;5.80;4.85;;;;;;;;;;4978958;28;20035;-82
2022/11/13 05:11:52;;;;;;;4.65;4.25;;;;;;;;;;4979913;28;20023;-81
2022/11/13 05:14:18;;;;;;;6.47;4.47;;;;;;;;;;4980121;28;20020;-80
2022/11/13 05:16:44;;;;;;;4.93;4.43;;;;;;;;;;4980218;29;20019;-80
2022/11/13 05:19:10;;;;;;;4.80;4.28;;;;;;;;;;4963692;29;20022;-81
2022/11/13 05:21:37;;;;;;;4.93;4.13;;;;;;;;;;4979301;28;20055;-80
2022/11/13 05:24:04;;;;;;;6.10;4.13;;;;;;;;;;4962180;28;20019;-79
2022/11/13 05:26:31;;;;;;;4.47;4.00;;;;;;;;;;4979400;28;20027;-78
2022/11/13 05:28:57;;;;;;;4.65;4.22;;;;;;;;;;4979270;28;20018;-78
2022/11/13 05:31:24;;;;;;;5.15;4.53;;;;;;;;;;4979209;28;20039;-79
2022/11/13 05:33:50;;;;;;;5.65;4.63;;;;;;;;;;4979451;28;20043;-78
2022/11/13 05:36:17;;;;;;;5.40;4.68;;;;;;;;;;4979563;28;20023;-79
2022/11/13 05:38:43;;;;;;;5.53;4.60;;;;;;;;;;4979360;28;20024;-79
2022/11/13 05:41:11;;;;;;;5.13;4.20;;;;;;;;;;4979188;28;20023;-81
2022/11/13 05:43:38;;;;;;;6.28;4.38;;;;;;;;;;4979494;28;20016;-80
2022/11/13 05:46:05;;;;;;;5.13;3.92;;;;;;;;;;4979371;28;20031;-78
2022/11/13 05:48:32;;;;;;;5.20;4.22;;;;;;;;;;4962409;28;20042;-80
2022/11/13 05:51:05;;;;;;;5.25;4.35;;;;;;;;;;4978899;28;20019;-80
2022/11/13 05:53:34;;;;;;;5.47;4.43;;;;;;;;;;4978293;28;20035;-81
2022/11/13 05:56:01;;;;;;;5.85;4.43;;;;;;;;;;4962287;28;20086;-80
2022/11/13 05:58:28;;;;;;;4.35;3.95;;;;;;;;;;4963200;28;20086;-79
2022/11/13 06:00:54;;;;;;;4.90;4.35;;;;;;;;;;4980049;28;20008;-80
2022/11/13 06:03:20;;;;;;;6.72;4.50;;;;;;;;;;4978096;28;20015;-80
2022/11/13 06:05:46;;;;;;;5.80;4.82;;;;;;;;;;4977052;29;20023;-80
2022/11/13 06:08:12;;;;;;;5.25;4.47;;;;;;;;;;4978539;28;20024;-81
2022/11/13 06:10:38;;;;;;;4.68;4.18;;;;;;;;;;4985539;28;20054;-80
2022/11/13 06:13:04;;;;;;;5.10;4.60;;;;;;;;;;4985530;28;20043;-81
2022/11/13 06:15:30;;;;;;;5.20;4.55;;;;;;;;;;4989391;28;20019;-79
2022/11/13 06:17:56;;;;;;;5.07;4.18;;;;;;;;;;4987481;28;20023;-80
2022/11/13 06:20:22;;;;;;;5.07;4.53;;;;;;;;;;4977447;28;20027;-80
2022/11/13 06:22:48;;;;;;;4.95;4.45;;;;;;;;;;4961440;29;20038;-81
2022/11/13 06:25:14;;;;;;;5.78;4.60;;;;;;;;;;4957037;29;20038;-79
2022/11/13 06:27:40;;;;;;;4.90;4.15;;;;;;;;;;4975458;29;20035;-80
2022/11/13 06:30:07;;;;;;;5.00;4.28;;;;;;;;;;4977797;28;20019;-80
2022/11/13 06:32:33;;;;;;;4.38;3.95;;;;;;;;;;4977645;28;20028;-79
2022/11/13 06:34:59;;;;;;;4.70;4.00;;;;;;;;;;4977614;29;20039;-79
2022/11/13 06:37:25;;;;;;;3.90;3.60;;;;;;;;;;4978102;28;20051;-81
2022/11/13 06:39:51;;;;;;;5.10;4.60;;;;;;;;;;4977899;28;20038;-81
2022/11/13 06:42:17;;;;;;;5.55;4.82;;;;;;;;;;4978382;28;20035;-81
2022/11/13 06:44:43;;;;;;;4.85;4.35;;;;;;;;;;4960961;29;20031;-80
2022/11/13 06:47:09;;;;;;;4.45;3.90;;;;;;;;;;4960236;28;20034;-80
2022/11/13 06:49:35;;;;;;;4.65;4.13;;;;;;;;;;4978017;29;20034;-79
2022/11/13 06:52:01;;;;;;;5.88;4.85;;;;;;;;;;4977771;28;20031;-79
2022/11/13 06:54:27;;;;;;;6.60;4.13;;;;;;;;;;4971218;29;20095;-79
2022/11/13 06:56:53;;;;;;;6.03;4.78;;;;;;;;;;4956011;29;20027;-79
2022/11/13 06:59:19;;;;;;;6.25;4.28;;;;;;;;;;4975537;29;20023;-79
2022/11/13 07:01:45;;;;;;;5.15;4.32;;;;;;;;;;4976689;29;20024;-79
2022/11/13 07:04:12;;;;;;;5.30;4.60;;;;;;;;;;4974713;28;20011;-79
2022/11/13 07:06:38;;;;;;;6.00;4.68;;;;;;;;;;4952943;29;20247;-80
2022/11/13 07:09:05;;;;;;;6.53;4.90;;;;;;;;;;4952634;29;20032;-81
2022/11/13 07:11:31;;;;;;;5.40;4.10;;;;;;;;;;4952227;29;20023;-80
2022/11/13 07:13:57;;;;;;;5.22;4.30;;;;;;;;;;4950285;29;20027;-81
2022/11/13 07:16:23;;;;;;;6.57;3.83;;;;;;;;;;4971539;29;20027;-79
2022/11/13 07:18:50;;;;;;;6.43;4.78;;;;;;;;;;4974167;29;20030;-80
2022/11/13 07:21:16;;;;;;;5.25;4.20;;;;;;;;;;4973771;29;20011;-80
2022/11/13 07:23:42;;;;;;;5.72;4.45;;;;;;;;;;4971623;29;20031;-80
2022/11/13 07:26:11;;;;;;;6.35;4.60;;;;;;;;;;4970072;28;20065;-80
2022/11/13 07:28:37;;;;;;;5.57;4.38;;;;;;;;;;4970396;29;20051;-79
2022/11/13 07:31:03;;;;;;;7.00;5.07;;;;;;;;;;4952858;29;20055;-79
2022/11/13 07:33:29;;;;;;;8.02;5.38;;;;;;;;;;4965060;28;20035;-80
2022/11/13 07:35:56;;;;;;;8.43;5.40;;;;;;;;;;4971349;28;20049;-79
2022/11/13 07:38:23;;;;;;;6.90;5.15;;;;;;;;;;4970641;29;20360;-80
2022/11/13 07:40:50;;;;;;;6.22;4.65;;;;;;;;;;4960196;28;20032;-78
2022/11/13 07:43:16;;;;;;;7.00;5.60;;;;;;;;;;4951117;29;20027;-80
2022/11/13 07:45:42;;;;;;;7.70;5.78;;;;;;;;;;4970557;29;20046;-79
2022/11/13 07:48:09;;;;;;;9.57;6.32;;;;;;;;;;4977648;28;20034;-80
2022/11/13 07:50:36;;;;;;;8.43;6.03;;;;;;;;;;4980396;28;20016;-80
2022/11/13 07:53:04;;;;;;;9.23;6.28;;;;;;;;;;4978670;28;20043;-79
2022/11/13 07:55:30;;;;;;;8.95;6.53;;;;;;;;;;4974458;29;20059;-79
2022/11/13 07:57:57;;;;;;;9.30;6.32;;;;;;;;;;4970710;29;20020;-80
2022/11/13 08:00:24;;;;;;;9.77;6.70;;;;;;;;;;4974561;29;20122;-78
2022/11/13 08:02:50;;;;;;;8.70;6.82;;;;;;;;;;4968595;29;20033;-81
2022/11/13 08:05:17;;;;;;;9.10;6.60;;;;;;;;;;4970492;29;20027;-80
2022/11/13 08:07:45;;;;;;;9.38;6.55;;;;;;;;;;4971789;29;20112;-80
2022/11/13 08:10:11;;;;;;;9.55;7.05;;;;;;;;;;4970492;29;20027;-80
2022/11/13 08:12:38;;;;;;;10.70;6.57;;;;;;;;;;4970728;28;20039;-79
2022/11/13 08:15:04;;;;;;;8.27;6.22;;;;;;;;;;4953605;29;20031;-80
2022/11/13 08:17:30;;;;;;;8.77;6.30;;;;;;;;;;4970369;28;20023;-80
2022/11/13 08:19:56;;;;;;;9.60;6.45;;;;;;;;;;4971747;29;20028;-80
2022/11/13 08:22:22;;;;;;;11.98;7.88;;;;;;;;;;4972504;28;20028;-79
2022/11/13 08:24:48;;;;;;;10.95;7.25;;;;;;;;;;4970529;29;20027;-79
2022/11/13 08:27:14;;;;;;;11.90;8.00;;;;;;;;;;4970241;29;20027;-80
2022/11/13 08:29:40;;;;;;;11.20;7.00;;;;;;;;;;4970135;29;20051;-80
2022/11/13 08:32:06;;;;;;;11.38;7.68;;;;;;;;;;4978814;28;20035;-80
2022/11/13 08:34:36;;;;;;;12.57;7.72;;;;;;;;;;4956575;28;20031;-79
2022/11/13 08:37:02;;;;;;;12.10;7.82;;;;;;;;;;4988530;28;20255;-80
2022/11/13 08:39:28;;;;;;;13.75;7.95;;;;;;;;;;4974496;29;20210;-79
2022/11/13 08:41:54;;;;;;;13.20;8.45;;;;;;;;;;4973324;29;20047;-79
2022/11/13 08:44:20;;;;;;;14.65;8.80;;;;;;;;;;4974603;28;20035;-78
2022/11/13 08:46:46;;;;;;;15.52;9.15;;;;;;;;;;4979657;28;20023;-78
2022/11/13 08:49:12;;;;;;;19.17;10.50;;;;;;;;;;4977761;29;20012;-79
2022/11/13 08:51:38;;;;;;;17.35;10.80;;;;;;;;;;4974962;29;20027;-79
2022/11/13 08:54:04;;;;;;;17.27;10.57;;;;;;;;;;4964360;29;20031;-80
2022/11/13 08:56:30;;;;;;;19.85;11.63;;;;;;;;;;4986176;28;20027;-80
2022/11/13 08:58:56;;;;;;;19.65;11.27;;;;;;;;;;4991137;28;20082;-79
2022/11/13 09:01:24;;;;;;;18.48;11.40;;;;;;;;;;4964390;29;20031;-82
2022/11/13 09:03:50;;;;;;;20.38;12.38;;;;;;;;;;4973977;29;20031;-81
2022/11/13 09:06:16;;;;;;;18.33;11.20;;;;;;;;;;4970111;29;20219;-81
2022/11/13 09:08:42;;;;;;;23.98;14.10;;;;;;;;;;4969092;29;20035;-81
2022/11/13 09:11:09;;;;;;;18.50;11.98;;;;;;;;;;4969541;29;20020;-79
2022/11/13 09:13:37;;;;;;;24.33;14.60;;;;;;;;;;4967696;28;20078;-80
2022/11/13 09:16:04;;;;;;;23.08;13.70;;;;;;;;;;4972248;28;20121;-79
2022/11/13 09:18:30;;;;;;;22.80;14.00;;;;;;;;;;4963631;28;20110;-80
2022/11/13 09:21:00;;;;;;;20.83;13.13;;;;;;;;;;4965081;29;20023;-80
2022/11/13 09:23:27;;;;;;;24.42;14.50;;;;;;;;;;4965538;29;20011;-79
2022/11/13 09:25:53;;;;;;;24.10;14.63;;;;;;;;;;4952578;29;20098;-79
2022/11/13 09:28:19;;;;;;;26.27;14.73;;;;;;;;;;4962882;28;20082;-79
2022/11/13 09:30:45;;;;;;;24.90;16.50;;;;;;;;;;4946970;29;20035;-79
2022/11/13 09:33:15;;;;;;;27.23;15.57;;;;;;;;;;4964514;29;20042;-80
2022/11/13 09:35:41;;;;;;;26.80;15.65;;;;;;;;;;4963233;29;20042;-80
2022/11/13 09:38:09;;;;;;;25.40;15.50;;;;;;;;;;4961881;29;20023;-80
2022/11/13 09:40:39;;;;;;;27.20;16.30;;;;;;;;;;4962853;29;20023;-80
2022/11/13 09:43:10;;;;;;;23.40;15.07;;;;;;;;;;4959479;29;20031;-81
2022/11/13 09:45:36;;;;;;;21.45;14.48;;;;;;;;;;4960409;29;20129;-80
2022/11/13 09:48:12;;;;;;;28.13;16.23;;;;;;;;;;4963041;28;20023;-81
2022/11/13 09:50:39;;;;;;;23.42;15.68;;;;;;;;;;4979427;28;20027;-80
2022/11/13 09:53:05;;;;;;;23.25;14.40;;;;;;;;;;4979256;28;20023;-81
2022/11/13 09:55:33;;;;;;;22.65;14.52;;;;;;;;;;4979281;28;20030;-81
2022/11/13 09:58:21;;;;;;;22.42;14.63;;;;;;;;;;4961252;28;20049;-80
2022/11/13 10:00:47;;;;;;;22.00;13.95;;;;;;;;;;4947274;29;20043;-80
2022/11/13 10:03:52;;;;;;;20.63;13.40;;;;;;;;;;4960159;28;20042;-81
2022/11/13 10:06:18;;;;;;;23.25;14.25;;;;;;;;;;4867145;29;20436;-81
2022/11/13 10:08:56;;;;;;;20.38;13.23;;;;;;;;;;4882554;29;20411;-80
2022/11/13 10:11:22;;;;;;;23.77;13.90;;;;;;;;;;4936405;28;20046;-81
2022/11/13 10:13:57;;;;;;;23.13;13.00;;;;;;;;;;4979104;28;20031;-80
2022/11/13 10:16:32;;;;;;;19.63;12.50;;;;;;;;;;4968564;28;20035;-81
2022/11/13 10:19:18;;;;;;;17.67;11.95;;;;;;;;;;4975787;28;20034;-81
2022/11/13 10:21:47;;;;;;;16.38;11.18;;;;;;;;;;4982027;28;20090;-79
2022/11/13 10:24:21;;;;;;;15.10;10.38;;;;;;;;;;4980671;28;20030;-80
2022/11/13 10:26:47;;;;;;;18.00;11.13;;;;;;;;;;4969060;28;20027;-80
2022/11/13 10:29:19;;;;;;;14.93;10.52;;;;;;;;;;4960883;29;20038;-79
2022/11/13 10:31:47;;;;;;;14.65;9.73;;;;;;;;;;4960900;29;20477;-80
2022/11/13 10:34:14;;;;;;;11.80;8.63;;;;;;;;;;4959827;28;20019;-80
2022/11/13 10:36:59;;;;;;;13.48;9.90;;;;;;;;;;4961319;28;20031;-79
2022/11/13 10:39:25;;;;;;;12.77;9.10;;;;;;;;;;4960226;28;20024;-80
2022/11/13 10:41:52;;;;;;;14.18;10.60;;;;;;;;;;4964687;29;20039;-80
2022/11/13 10:44:21;;;;;;;15.75;10.55;;;;;;;;;;4965768;29;20027;-80
2022/11/13 10:46:47;;;;;;;15.88;9.77;;;;;;;;;;4947839;29;20035;-80
2022/11/13 10:49:30;;;;;;;14.77;10.63;;;;;;;;;;4965147;29;20131;-80
2022/11/13 10:51:56;;;;;;;15.77;10.15;;;;;;;;;;4964920;29;20066;-80
2022/11/13 10:54:32;;;;;;;18.02;10.85;;;;;;;;;;4963599;29;20039;-80
2022/11/13 10:57:03;;;;;;;17.83;11.75;;;;;;;;;;4963259;29;20023;-80
2022/11/13 10:59:39;;;;;;;15.98;9.98;;;;;;;;;;4964109;29;20468;-80
2022/11/13 11:02:15;;;;;;;13.38;9.13;;;;;;;;;;4963313;29;20034;-80
2022/11/13 11:04:41;;;;;;;16.67;10.68;;;;;;;;;;4963300;29;20500;-80
2022/11/13 11:07:13;;;;;;;16.45;10.75;;;;;;;;;;4963712;28;20031;-78
2022/11/13 11:09:42;;;;;;;16.52;10.57;;;;;;;;;;4964472;29;20058;-80
2022/11/13 11:12:17;;;;;;;15.43;9.88;;;;;;;;;;4963034;28;20485;-80
2022/11/13 11:14:58;;;;;;;13.90;9.65;;;;;;;;;;4962879;29;20404;-80
2022/11/13 11:17:43;;;;;;;15.40;10.57;;;;;;;;;;4965293;28;20034;-80
2022/11/13 11:20:28;;;;;;;16.13;10.50;;;;;;;;;;4943749;29;20486;-81
2022/11/13 11:22:59;;;;;;;15.98;10.73;;;;;;;;;;4943748;29;20035;-81
2022/11/13 11:25:25;;;;;;;14.90;11.05;;;;;;;;;;4957682;28;20497;-80
2022/11/13 11:27:56;;;;;;;15.68;10.73;;;;;;;;;;4979840;28;20027;-79
2022/11/13 11:30:25;;;;;;;17.58;11.23;;;;;;;;;;4985797;28;20033;-80
2022/11/13 11:32:51;;;;;;;16.17;10.63;;;;;;;;;;4975861;28;20038;-79
2022/11/13 11:35:21;;;;;;;19.63;12.25;;;;;;;;;;4964251;29;20027;-80
2022/11/13 11:38:01;;;;;;;16.05;10.77;;;;;;;;;;4961698;28;20023;-80
2022/11/13 11:40:33;;;;;;;16.35;10.52;;;;;;;;;;4966576;29;20047;-79
2022/11/13 11:43:03;;;;;;;20.60;12.20;;;;;;;;;;4964350;28;20023;-79
2022/11/13 11:45:32;;;;;;;16.55;11.43;;;;;;;;;;4968198;28;20058;-79
2022/11/13 11:48:00;;;;;;;18.85;11.27;;;;;;;;;;4963290;28;20454;-80
2022/11/13 11:50:45;;;;;;;17.27;11.50;;;;;;;;;;4965691;28;20027;-80
2022/11/13 11:53:37;;;;;;;16.20;11.32;;;;;;;;;;4954625;29;20023;-80
2022/11/13 11:56:06;;;;;;;15.40;11.32;;;;;;;;;;4954066;29;20042;-80
2022/11/13 11:59:11;;;;;;;18.35;11.82;;;;;;;;;;4959818;28;20035;-80
2022/11/13 12:01:55;;;;;;;17.27;11.68;;;;;;;;;;4907792;29;20175;-80
2022/11/13 12:04:21;;;;;;;17.98;12.15;;;;;;;;;;4916827;29;20040;-80
2022/11/13 12:06:50;;;;;;;19.38;11.98;;;;;;;;;;4944626;29;20043;-79
2022/11/13 12:09:26;;;;;;;19.77;12.55;;;;;;;;;;4964896;28;20022;-80
2022/11/13 12:12:00;;;;;;;17.25;12.15;;;;;;;;;;4969623;28;20054;-79
2022/11/13 12:14:26;;;;;;;18.35;12.20;;;;;;;;;;4960922;29;20024;-80
2022/11/13 12:17:09;;;;;;;21.65;13.05;;;;;;;;;;4962432;28;20027;-79
2022/11/13 12:19:41;;;;;;;14.98;11.52;;;;;;;;;;4951308;28;20023;-80
2022/11/13 12:22:20;;;;;;;16.30;11.68;;;;;;;;;;4973833;28;20024;-81
2022/11/13 12:25:08;;;;;;;15.15;9.95;;;;;;;;;;4963837;29;20069;-79
2022/11/13 12:27:38;;;;;;;17.33;11.00;;;;;;;;;;4962705;29;20054;-80
2022/11/13 12:30:04;;;;;;;14.65;10.07;;;;;;;;;;4962505;28;20039;-81
2022/11/13 12:32:50;;;;;;;15.15;10.23;;;;;;;;;;4961544;28;20055;-80
2022/11/13 12:35:20;;;;;;;15.05;10.27;;;;;;;;;;4947875;29;20024;-80
2022/11/13 12:37:50;;;;;;;16.17;10.73;;;;;;;;;;4949490;29;20497;-80
2022/11/13 12:40:35;;;;;;;17.10;11.65;;;;;;;;;;4964759;28;20019;-80
2022/11/13 12:43:01;;;;;;;15.65;10.60;;;;;;;;;;4944434;29;20026;-80
2022/11/13 12:45:47;;;;;;;12.98;10.13;;;;;;;;;;4960706;29;20027;-80
2022/11/13 12:48:14;;;;;;;14.30;9.88;;;;;;;;;;4956472;28;20050;-79
2022/11/13 12:50:40;;;;;;;12.93;8.43;;;;;;;;;;4958885;28;20629;-80
2022/11/13 12:53:14;;;;;;;12.70;9.15;;;;;;;;;;4960033;28;20028;-80
2022/11/13 12:55:41;;;;;;;9.73;7.40;;;;;;;;;;4961215;29;20411;-85
2022/11/13 12:58:07;;;;;;;12.65;9.50;;;;;;;;;;4952055;29;20062;-83
2022/11/13 13:00:34;;;;;;;12.98;9.32;;;;;;;;;;4961487;28;20031;-79
2022/11/13 13:03:25;;;;;;;13.45;10.50;;;;;;;;;;4956003;28;20542;-81
2022/11/13 13:05:51;;;;;;;14.10;10.70;;;;;;;;;;4960498;29;20027;-81
2022/11/13 13:08:44;;;;;;;13.13;10.35;;;;;;;;;;4960371;28;20110;-80
2022/11/13 13:11:16;;;;;;;15.68;9.95;;;;;;;;;;4963532;28;20019;-81
2022/11/13 13:14:00;;;;;;;14.00;10.48;;;;;;;;;;4969106;28;20039;-80
2022/11/13 13:16:28;;;;;;;14.20;11.00;;;;;;;;;;4960898;29;20361;-81
2022/11/13 13:19:05;;;;;;;13.98;10.55;;;;;;;;;;4948923;28;20037;-82
2022/11/13 13:21:39;;;;;;;13.00;9.63;;;;;;;;;;4964795;28;20022;-80
2022/11/13 13:24:24;;;;;;;14.82;9.63;;;;;;;;;;4980207;28;20026;-81
2022/11/13 13:26:50;;;;;;;14.75;9.52;;;;;;;;;;4979644;28;20034;-80
2022/11/13 13:29:17;;;;;;;15.15;9.63;;;;;;;;;;4980265;28;20054;-81
2022/11/13 13:31:46;;;;;;;11.40;8.48;;;;;;;;;;4965257;28;20027;-80
2022/11/13 13:34:30;;;;;;;12.05;8.90;;;;;;;;;;4961736;29;20564;-81
2022/11/13 13:37:23;;;;;;;11.15;8.48;;;;;;;;;;4964889;29;20028;-81
2022/11/13 13:39:56;;;;;;;12.02;8.35;;;;;;;;;;4966993;29;20115;-78
2022/11/13 13:42:29;;;;;;;13.85;10.18;;;;;;;;;;4959041;28;20027;-79
2022/11/13 13:45:13;;;;;;;10.55;8.07;;;;;;;;;;4962062;28;20031;-81
2022/11/13 13:47:42;;;;;;;11.90;8.50;;;;;;;;;;4960973;29;20035;-80
2022/11/13 13:50:12;;;;;;;11.75;8.98;;;;;;;;;;4961174;29;20042;-81
2022/11/13 13:52:39;;;;;;;13.45;9.40;;;;;;;;;;4943803;29;20035;-79
2022/11/13 13:55:06;;;;;;;12.35;8.65;;;;;;;;;;4967265;29;20083;-80
2022/11/13 13:57:33;;;;;;;11.68;9.52;;;;;;;;;;4961797;29;20034;-81
2022/11/13 14:00:00;;;;;;;11.43;9.10;;;;;;;;;;4960885;29;20034;-81
2022/11/13 14:02:26;;;;;;;11.18;8.50;;;;;;;;;;4964207;28;20051;-79
2022/11/13 14:04:53;;;;;;;10.98;8.80;;;;;;;;;;4961235;29;20032;-80
2022/11/13 14:07:20;;;;;;;8.88;7.30;;;;;;;;;;4963862;29;20038;-78
2022/11/13 14:09:46;;;;;;;10.93;8.80;;;;;;;;;;4978522;28;20031;-79